TimeCST,TemperatureF,Dew PointF,Humidity,Sea Level PressureIn,VisibilityMPH,Wind Direction,Wind SpeedMPH,Gust SpeedMPH,PrecipitationIn,Events,Conditions,WindDirDegrees,DateUTC
12:53 AM,57.0,55.0,93,29.86,10.0,South,16.1,23.0,0.00,Rain,Light Rain,190,2013-11-06 06:53:00
1:53 AM,57.0,55.9,96,29.84,4.0,SSW,15.0,-,0.08,Rain,Rain,200,2013-11-06 07:53:00
2:53 AM,57.0,55.9,96,29.83,7.0,SSW,16.1,-,0.06,Rain,Light Rain,200,2013-11-06 08:53:00
3:53 AM,57.0,55.9,96,29.81,10.0,SSW,16.1,23.0,0.11,Rain,Light Rain,200,2013-11-06 09:53:00
4:53 AM,57.0,55.9,96,29.82,10.0,SSW,11.5,-,0.01,Rain,Light Rain,200,2013-11-06 10:53:00
5:23 AM,57.2,55.4,94,29.82,10.0,SSW,15.0,-,0.01,Rain,Light Rain,210,2013-11-06 11:23:00
5:29 AM,55.4,53.6,94,29.85,7.0,NW,19.6,27.6,0.03,Rain,Light Rain,310,2013-11-06 11:29:00
5:40 AM,48.2,46.4,93,29.86,10.0,WNW,16.1,25.3,0.03,Rain,Light Rain,300,2013-11-06 11:40:00
5:53 AM,46.9,46.0,97,29.85,10.0,NW,10.4,20.7,0.03,,Overcast,310,2013-11-06 11:53:00
6:01 AM,46.4,46.4,100,29.85,10.0,NW,10.4,18.4,N/A,,Overcast,310,2013-11-06 12:01:00
6:18 AM,46.4,44.6,93,29.86,10.0,WNW,10.4,21.9,N/A,,Overcast,300,2013-11-06 12:18:00
6:53 AM,43.0,41.0,93,29.91,10.0,WNW,15.0,24.2,0.00,,Overcast,300,2013-11-06 12:53:00
7:53 AM,39.9,39.0,97,29.95,10.0,WNW,10.4,25.3,0.00,Rain,Light Rain,300,2013-11-06 13:53:00
8:53 AM,39.9,37.9,93,29.99,10.0,NW,11.5,25.3,0.01,,Overcast,310,2013-11-06 14:53:00
9:22 AM,39.2,37.4,93,30.00,10.0,NW,13.8,24.2,N/A,,Overcast,310,2013-11-06 15:22:00
9:53 AM,39.9,37.0,89,30.02,10.0,NW,17.3,26.5,N/A,,Overcast,310,2013-11-06 15:53:00
10:53 AM,41.0,37.0,86,30.04,10.0,NW,13.8,26.5,N/A,,Overcast,310,2013-11-06 16:53:00
11:19 AM,41.0,35.6,81,30.05,10.0,NW,17.3,25.3,N/A,,Overcast,320,2013-11-06 17:19:00
11:53 AM,43.0,36.0,76,30.06,10.0,NNW,18.4,24.2,N/A,,Overcast,330,2013-11-06 17:53:00
12:53 PM,43.0,36.0,76,30.07,10.0,NW,13.8,21.9,N/A,,Overcast,320,2013-11-06 18:53:00
1:53 PM,44.1,36.0,73,30.09,10.0,NW,12.7,21.9,N/A,,Overcast,310,2013-11-06 19:53:00
2:14 PM,44.6,35.6,71,30.09,10.0,NW,13.8,19.6,N/A,,Overcast,320,2013-11-06 20:14:00
2:53 PM,46.0,34.0,63,30.11,10.0,NNW,13.8,23.0,N/A,,Mostly Cloudy,330,2013-11-06 20:53:00
3:53 PM,46.9,34.0,61,30.14,10.0,NW,9.2,20.7,N/A,,Mostly Cloudy,320,2013-11-06 21:53:00
4:53 PM,44.1,30.9,60,30.17,10.0,NW,10.4,-,N/A,,Clear,310,2013-11-06 22:53:00
5:53 PM,41.0,30.0,65,30.20,10.0,NW,6.9,-,N/A,,Clear,310,2013-11-06 23:53:00
6:53 PM,39.0,28.9,67,30.22,10.0,NW,3.5,-,N/A,,Clear,320,2013-11-07 00:53:00
7:53 PM,36.0,28.0,73,30.23,10.0,NW,3.5,-,N/A,,Clear,310,2013-11-07 01:53:00
8:53 PM,35.1,27.0,72,30.25,10.0,WNW,4.6,-,N/A,,Clear,300,2013-11-07 02:53:00
9:53 PM,34.0,27.0,75,30.27,10.0,WNW,4.6,-,N/A,,Clear,300,2013-11-07 03:53:00
10:53 PM,33.1,26.1,75,30.27,10.0,NW,5.8,-,N/A,,Clear,310,2013-11-07 04:53:00
11:53 PM,33.1,26.1,75,30.28,10.0,NW,4.6,-,N/A,,Clear,320,2013-11-07 05:53:00